Terminal Aerodrome Forecast
Issued by NWS Bismarck, ND

Home | Current Version | Previous Version | Graphics & Text | Print | Product List | Glossary Off
Versions: 1 2 3 4 5 6 7 8 9 10 11 12 13 14 15 16 17 18 19 20 21

000
FTUS43 KBIS 221700
TAFBIS
TAF
KBIS 221732Z 2218/2318 07008KT P6SM VCTS SCT015 SCT030CB BKN100
     FM230000 07011KT P6SM VCTS SCT050CB BKN100
     FM230600 06014KT 6SM BR VCTS SCT012 SCT040CB OVC050
     FM231200 06014KT 5SM -TSRA BR SCT006 BKN020 OVC035CB=

USA.gov is the U.S. government's official web portal to all federal, state and local government web resources and services.